Time;durP1;ratioP1;P1;durP2;ratioP2;P2;SDS_P1;SDS_P2;PMS_P1;PMS_P2;Temp;Humidity;BMP_temperature;BMP_pressure;BME280_temperature;BME280_humidity;BME280_pressure;Samples;Min_cycle;Max_cycle;Signal;HPM_P1;HPM_P2
2022/12/19 00:00:30;;;;;;;14.40;9.27;;;-0.80;99.90;;;;;;5072183;28;20470;-48
2022/12/19 00:02:58;;;;;;;14.63;9.90;;;-0.70;99.90;;;;;;5073127;28;20469;-50
2022/12/19 00:05:26;;;;;;;14.53;9.60;;;-0.70;99.90;;;;;;5072741;28;20973;-55
2022/12/19 00:07:54;;;;;;;17.70;9.93;;;-0.80;99.90;;;;;;5073338;28;20523;-52
2022/12/19 00:10:23;;;;;;;15.53;9.83;;;-0.80;99.90;;;;;;5072933;28;20454;-50
2022/12/19 00:12:53;;;;;;;15.67;9.57;;;-0.70;99.90;;;;;;5072728;28;20465;-52
2022/12/19 00:15:21;;;;;;;17.67;9.60;;;-0.80;99.90;;;;;;5072936;28;20461;-52
2022/12/19 00:17:49;;;;;;;16.00;9.43;;;-0.70;99.90;;;;;;5077202;28;20497;-52
2022/12/19 00:20:17;;;;;;;15.63;10.63;;;-0.70;99.90;;;;;;5072364;28;20949;-53
2022/12/19 00:22:45;;;;;;;15.33;9.40;;;-0.70;99.90;;;;;;5071994;28;20507;-53
2022/12/19 00:25:13;;;;;;;17.13;9.40;;;-0.70;99.90;;;;;;5072638;28;20860;-52
2022/12/19 00:27:42;;;;;;;17.03;10.43;;;-0.70;99.90;;;;;;5072667;28;20469;-51
2022/12/19 00:30:13;;;;;;;16.03;10.37;;;-0.70;99.90;;;;;;5072176;28;20985;-54
2022/12/19 00:32:41;;;;;;;13.83;9.70;;;-0.70;99.90;;;;;;5071195;28;20872;-53
2022/12/19 00:35:10;;;;;;;13.87;9.40;;;-0.50;99.90;;;;;;5064780;28;20484;-49
2022/12/19 00:37:38;;;;;;;17.93;10.80;;;-0.60;99.90;;;;;;5072579;28;20465;-52
2022/12/19 00:40:15;;;;;;;15.40;9.13;;;-0.60;99.90;;;;;;5072954;28;20457;-52
2022/12/19 00:42:43;;;;;;;14.50;9.80;;;-0.60;99.90;;;;;;5072260;28;20909;-52
2022/12/19 00:45:20;;;;;;;16.30;10.60;;;-0.60;99.90;;;;;;5072571;28;20457;-53
2022/12/19 00:47:48;;;;;;;15.03;10.47;;;-0.60;99.90;;;;;;5075618;28;20476;-53
2022/12/19 00:50:16;;;;;;;14.30;9.77;;;-0.60;99.90;;;;;;5072730;28;20881;-53
2022/12/19 00:52:44;;;;;;;17.63;11.03;;;-0.60;99.90;;;;;;5072379;28;20485;-51
2022/12/19 00:55:12;;;;;;;16.50;10.57;;;-0.60;99.90;;;;;;5072476;28;20964;-52
2022/12/19 00:57:45;;;;;;;16.53;10.20;;;-0.50;99.90;;;;;;5072466;28;20553;-54
2022/12/19 01:00:15;;;;;;;16.27;10.40;;;-0.50;99.90;;;;;;5072105;28;20969;-53
2022/12/19 01:02:45;;;;;;;17.20;9.97;;;-0.50;99.90;;;;;;5072107;28;20468;-53
2022/12/19 01:05:13;;;;;;;15.93;9.87;;;-0.50;99.90;;;;;;5064702;28;20491;-53
2022/12/19 01:07:41;;;;;;;15.33;10.40;;;-0.50;99.90;;;;;;5072328;28;20456;-53
2022/12/19 01:10:10;;;;;;;13.57;9.33;;;-0.50;99.90;;;;;;5072283;28;20477;-52
2022/12/19 01:12:46;;;;;;;16.77;11.03;;;-0.50;99.90;;;;;;5071904;28;20475;-53
2022/12/19 01:15:20;;;;;;;15.17;9.70;;;-0.40;99.90;;;;;;5072368;28;20457;-52
2022/12/19 01:17:50;;;;;;;15.73;10.17;;;-0.40;99.90;;;;;;5076677;28;20457;-53
2022/12/19 01:20:21;;;;;;;16.00;10.43;;;-0.40;99.90;;;;;;5072469;28;20449;-53
2022/12/19 01:22:57;;;;;;;13.37;9.17;;;-0.40;99.90;;;;;;5070999;28;20472;-52
2022/12/19 01:25:28;;;;;;;15.50;9.43;;;-0.40;99.90;;;;;;5070363;28;20534;-52
2022/12/19 01:27:56;;;;;;;15.63;9.97;;;-0.40;99.90;;;;;;5071939;28;20454;-53
2022/12/19 01:30:25;;;;;;;14.60;9.07;;;-0.40;99.90;;;;;;5071439;28;20485;-54
2022/12/19 01:32:56;;;;;;;16.10;9.93;;;-0.30;99.90;;;;;;5073040;28;20978;-54
2022/12/19 01:35:27;;;;;;;15.17;10.53;;;-0.40;99.90;;;;;;5075430;28;20496;-52
2022/12/19 01:37:55;;;;;;;17.77;10.70;;;-0.40;99.90;;;;;;5075651;28;20461;-53
2022/12/19 01:40:36;;;;;;;17.73;10.47;;;-0.40;99.90;;;;;;5074371;28;20567;-51
2022/12/19 01:43:04;;;;;;;16.00;9.83;;;-0.30;99.90;;;;;;5074475;28;20469;-49
2022/12/19 01:45:35;;;;;;;14.83;10.40;;;-0.30;99.90;;;;;;5074155;28;20473;-54
2022/12/19 01:48:18;;;;;;;17.67;10.40;;;-0.30;99.90;;;;;;5080244;28;21081;-52
2022/12/19 01:50:52;;;;;;;16.40;10.53;;;-0.30;99.90;;;;;;5073824;28;20571;-53
2022/12/19 01:53:33;;;;;;;17.27;10.60;;;-0.30;99.90;;;;;;5073841;28;20489;-51
2022/12/19 01:56:06;;;;;;;17.00;10.60;;;-0.30;99.90;;;;;;5074203;28;20569;-53
2022/12/19 01:58:35;;;;;;;16.50;10.90;;;-0.30;99.90;;;;;;5070629;28;20461;-51
2022/12/19 02:01:03;;;;;;;16.43;10.97;;;-0.30;99.90;;;;;;5075034;28;20470;-52
2022/12/19 02:03:35;;;;;;;17.37;10.73;;;-0.30;99.90;;;;;;5073778;28;20485;-53
2022/12/19 02:06:06;;;;;;;18.77;11.93;;;-0.30;99.90;;;;;;5107945;28;20469;-54
2022/12/19 02:08:36;;;;;;;19.67;11.67;;;-0.30;99.90;;;;;;5107725;28;20480;-52
2022/12/19 02:11:04;;;;;;;17.23;10.23;;;-0.30;99.90;;;;;;5075026;28;20496;-53
2022/12/19 02:13:33;;;;;;;15.33;10.27;;;-0.30;99.90;;;;;;5106900;28;20458;-53
2022/12/19 02:16:09;;;;;;;17.43;11.13;;;-0.30;99.90;;;;;;5073485;28;20527;-54
2022/12/19 02:18:48;;;;;;;16.10;10.77;;;-0.20;99.90;;;;;;5078102;28;20504;-52
2022/12/19 02:21:26;;;;;;;18.87;11.60;;;-0.30;99.90;;;;;;5066570;28;21068;-53
2022/12/19 02:24:40;;;;;;;18.27;12.00;;;-0.30;99.90;;;;;;5074883;28;20449;-53
2022/12/19 02:27:41;;;;;;;20.50;11.43;;;-0.20;99.90;;;;;;5073506;28;20556;-53
2022/12/19 02:30:14;;;;;;;23.40;13.27;;;-0.20;99.90;;;;;;5072935;28;20485;-53
2022/12/19 02:32:58;;;;;;;20.17;12.07;;;-0.20;99.90;;;;;;5072891;28;20464;-54
2022/12/19 02:35:33;;;;;;;18.07;11.77;;;-0.20;99.90;;;;;;5072980;28;20470;-52
2022/12/19 02:38:12;;;;;;;20.33;13.13;;;-0.10;99.90;;;;;;5073315;28;20465;-52
2022/12/19 02:40:47;;;;;;;18.87;12.30;;;-0.10;99.90;;;;;;5072950;28;20465;-53
2022/12/19 02:43:22;;;;;;;19.13;12.17;;;-0.10;99.90;;;;;;5073308;28;20555;-52
2022/12/19 02:45:52;;;;;;;18.30;11.43;;;-0.10;99.90;;;;;;5072383;28;20478;-53
2022/12/19 02:48:23;;;;;;;20.47;12.60;;;-0.10;99.90;;;;;;5078939;28;20459;-54
2022/12/19 02:50:51;;;;;;;17.30;12.10;;;-0.10;99.90;;;;;;5073063;28;20488;-54
2022/12/19 02:53:19;;;;;;;19.37;12.87;;;-0.10;99.90;;;;;;5072932;28;20501;-51
2022/12/19 02:56:24;;;;;;;20.23;13.10;;;-0.10;99.90;;;;;;5106973;28;20970;-52
2022/12/19 02:59:12;;;;;;;24.03;12.63;;;-0.10;99.90;;;;;;5070739;28;20868;-53
2022/12/19 03:01:47;;;;;;;18.70;11.77;;;0.00;99.90;;;;;;5072510;28;20477;-54
2022/12/19 03:04:35;;;;;;;22.53;12.93;;;-0.10;99.90;;;;;;5073361;28;20506;-53
2022/12/19 03:07:10;;;;;;;19.27;11.73;;;-0.10;99.90;;;;;;5072793;28;20461;-50
2022/12/19 03:09:46;;;;;;;20.10;12.40;;;-0.10;99.90;;;;;;5073735;28;20556;-53
2022/12/19 03:12:21;;;;;;;21.40;12.53;;;-0.10;99.90;;;;;;5074045;28;20526;-53
2022/12/19 03:14:53;;;;;;;22.00;13.17;;;-0.10;99.90;;;;;;5106532;28;20469;-52
2022/12/19 03:17:21;;;;;;;20.67;12.80;;;-0.10;99.90;;;;;;5079614;28;21019;-51
2022/12/19 03:19:51;;;;;;;20.90;13.03;;;0.00;99.90;;;;;;5090678;28;20453;-51
2022/12/19 03:22:19;;;;;;;21.37;12.30;;;0.10;99.90;;;;;;5093882;28;20854;-52
2022/12/19 03:24:47;;;;;;;21.00;13.33;;;0.10;99.90;;;;;;5093281;28;20476;-55
2022/12/19 03:27:22;;;;;;;23.20;13.90;;;0.10;99.90;;;;;;5085011;28;20465;-52
2022/12/19 03:29:53;;;;;;;19.33;12.00;;;0.10;99.90;;;;;;5089110;28;20472;-53
2022/12/19 03:32:24;;;;;;;22.70;12.57;;;0.00;99.90;;;;;;5088559;28;21008;-54
2022/12/19 03:34:58;;;;;;;20.23;13.33;;;0.10;99.90;;;;;;5092150;28;20468;-53
2022/12/19 03:37:33;;;;;;;20.70;13.43;;;0.10;99.90;;;;;;5093355;28;20467;-54
2022/12/19 03:40:04;;;;;;;23.50;12.90;;;0.10;99.90;;;;;;5090172;28;20483;-53
2022/12/19 03:45:26;;;;;;;20.43;13.40;;;0.20;99.90;;;;;;5089413;28;20504;-53
2022/12/19 03:47:58;;;;;;;23.07;13.67;;;0.20;99.90;;;;;;5087266;28;20470;-53
2022/12/19 03:50:33;;;;;;;21.67;13.07;;;0.20;99.90;;;;;;5086401;28;20488;-52
2022/12/19 03:53:11;;;;;;;21.90;13.10;;;0.30;99.90;;;;;;5073112;28;20488;-53
2022/12/19 03:55:44;;;;;;;22.80;14.30;;;0.30;99.90;;;;;;5072754;28;20469;-53
2022/12/19 03:58:16;;;;;;;22.00;13.67;;;0.30;99.90;;;;;;5073237;28;20791;-53
2022/12/19 04:00:47;;;;;;;22.63;13.50;;;0.30;99.90;;;;;;5072606;28;20494;-51
2022/12/19 04:03:17;;;;;;;22.57;13.43;;;0.30;99.90;;;;;;5072655;28;20463;-52
2022/12/19 04:05:48;;;;;;;20.97;13.10;;;0.30;99.90;;;;;;5072762;28;20524;-55
2022/12/19 04:08:17;;;;;;;23.53;14.00;;;0.30;99.90;;;;;;5073184;28;20972;-52
2022/12/19 04:10:49;;;;;;;23.40;13.63;;;0.30;99.90;;;;;;5072266;28;21022;-54
2022/12/19 04:13:21;;;;;;;20.57;12.83;;;0.30;99.90;;;;;;5073303;28;20801;-54
2022/12/19 04:15:53;;;;;;;24.77;14.57;;;0.40;99.90;;;;;;5072988;28;20872;-52
2022/12/19 04:18:23;;;;;;;24.13;14.27;;;0.40;99.90;;;;;;5083148;28;20866;-52
2022/12/19 04:20:58;;;;;;;22.63;14.67;;;0.40;99.90;;;;;;5075452;28;20848;-51
2022/12/19 04:23:32;;;;;;;22.47;12.93;;;0.40;99.90;;;;;;5072923;28;20465;-52
2022/12/19 04:26:03;;;;;;;23.73;14.10;;;0.50;99.90;;;;;;5072664;28;20473;-54
2022/12/19 04:28:36;;;;;;;23.23;14.50;;;0.50;99.90;;;;;;5072761;28;20473;-52
2022/12/19 04:31:05;;;;;;;27.03;17.40;;;0.50;99.90;;;;;;5071963;28;20429;-54
2022/12/19 04:33:33;;;;;;;22.93;15.53;;;0.60;99.90;;;;;;5072440;28;20224;-53
2022/12/19 04:36:03;;;;;;;25.23;15.97;;;0.60;99.90;;;;;;5072780;28;20475;-53
2022/12/19 04:38:32;;;;;;;22.13;13.97;;;0.60;99.90;;;;;;5072455;28;20461;-51
2022/12/19 04:41:00;;;;;;;26.60;15.70;;;0.70;99.90;;;;;;5072604;28;20472;-51
2022/12/19 04:43:28;;;;;;;25.00;14.93;;;0.70;99.90;;;;;;5072606;28;20457;-53
2022/12/19 04:45:56;;;;;;;25.20;15.43;;;0.70;99.90;;;;;;5072742;28;20462;-53
2022/12/19 04:48:25;;;;;;;24.63;14.37;;;0.70;99.90;;;;;;5076907;28;20499;-54
2022/12/19 04:50:53;;;;;;;25.87;14.87;;;0.80;99.90;;;;;;5071238;28;20490;-54
2022/12/19 04:53:22;;;;;;;27.67;15.77;;;0.70;99.90;;;;;;5072360;28;20481;-53
2022/12/19 04:55:50;;;;;;;23.60;14.47;;;0.80;99.90;;;;;;5072448;28;20474;-53
2022/12/19 04:58:18;;;;;;;25.03;15.47;;;0.80;99.90;;;;;;5071961;28;20457;-53
2022/12/19 05:00:49;;;;;;;26.47;15.40;;;0.80;99.90;;;;;;5071990;28;20485;-52
2022/12/19 05:03:17;;;;;;;22.70;13.53;;;0.90;99.90;;;;;;5072411;28;20462;-50
2022/12/19 05:05:45;;;;;;;23.50;14.93;;;0.90;99.90;;;;;;5072177;28;20474;-50
2022/12/19 05:08:13;;;;;;;28.47;16.07;;;0.90;99.90;;;;;;5073902;28;20465;-53
2022/12/19 05:10:42;;;;;;;25.77;15.70;;;0.90;99.90;;;;;;5076297;28;20814;-52
2022/12/19 05:13:11;;;;;;;27.47;15.00;;;0.90;99.90;;;;;;5076279;28;20969;-53
2022/12/19 05:15:39;;;;;;;26.77;15.00;;;0.90;99.90;;;;;;5076341;28;20470;-54
2022/12/19 05:18:08;;;;;;;25.07;15.97;;;0.90;99.90;;;;;;5076382;28;20462;-51
2022/12/19 05:20:37;;;;;;;25.60;16.03;;;0.90;99.90;;;;;;5075733;28;20468;-53
2022/12/19 05:23:05;;;;;;;29.00;15.50;;;0.90;99.90;;;;;;5076038;28;20968;-52
2022/12/19 05:25:44;;;;;;;24.80;15.40;;;0.90;99.90;;;;;;5075883;28;20937;-54
2022/12/19 05:28:13;;;;;;;28.20;17.40;;;1.00;99.90;;;;;;5075687;28;20461;-49
2022/12/19 05:30:42;;;;;;;29.77;16.43;;;1.00;99.90;;;;;;5075070;28;20484;-50
2022/12/19 05:33:16;;;;;;;27.87;16.53;;;1.00;99.90;;;;;;5076067;28;20987;-53
2022/12/19 05:35:44;;;;;;;27.23;16.20;;;1.00;99.90;;;;;;5075403;28;20474;-52
2022/12/19 05:38:12;;;;;;;28.10;16.07;;;1.10;99.90;;;;;;5075337;28;20461;-53
2022/12/19 05:40:40;;;;;;;31.80;16.80;;;1.10;99.90;;;;;;5075491;28;20478;-50
2022/12/19 05:43:09;;;;;;;27.50;16.57;;;1.10;99.90;;;;;;5075842;28;20468;-50
2022/12/19 05:45:39;;;;;;;31.43;16.30;;;1.10;99.90;;;;;;5075265;28;20465;-52
2022/12/19 05:48:07;;;;;;;26.40;16.17;;;1.20;99.90;;;;;;5075810;28;20469;-50
2022/12/19 05:50:36;;;;;;;30.90;17.73;;;1.20;99.90;;;;;;5075455;28;20499;-51
2022/12/19 05:53:09;;;;;;;30.10;17.13;;;1.30;99.90;;;;;;5067012;28;20489;-50
2022/12/19 05:55:37;;;;;;;27.10;17.53;;;1.30;99.90;;;;;;5075510;28;20473;-50
2022/12/19 05:58:05;;;;;;;28.73;16.53;;;1.30;99.90;;;;;;5075359;28;20477;-51
2022/12/19 06:00:35;;;;;;;28.13;16.90;;;1.30;99.90;;;;;;5074483;28;20469;-48
2022/12/19 06:03:03;;;;;;;30.13;16.83;;;1.30;99.90;;;;;;5075051;28;20469;-49
2022/12/19 06:05:32;;;;;;;31.93;17.70;;;1.40;99.90;;;;;;5075035;28;20466;-52
2022/12/19 06:08:00;;;;;;;30.50;17.80;;;1.40;99.90;;;;;;5084690;28;20948;-51
2022/12/19 06:10:28;;;;;;;30.93;17.67;;;1.40;99.90;;;;;;5088617;28;20821;-51
2022/12/19 06:12:56;;;;;;;27.73;16.73;;;1.40;99.90;;;;;;5095315;28;20481;-51
2022/12/19 06:15:24;;;;;;;31.83;17.93;;;1.40;99.90;;;;;;5095201;28;20462;-49
2022/12/19 06:17:54;;;;;;;29.87;17.40;;;1.50;99.90;;;;;;5095379;28;20952;-50
2022/12/19 06:20:22;;;;;;;27.83;18.13;;;1.50;99.90;;;;;;5093504;28;20454;-49
2022/12/19 06:22:51;;;;;;;28.43;18.67;;;1.50;99.90;;;;;;5090004;28;20461;-50
2022/12/19 06:25:19;;;;;;;30.97;17.30;;;1.50;99.90;;;;;;5094620;28;20456;-47
2022/12/19 06:27:47;;;;;;;28.97;18.00;;;1.50;99.90;;;;;;5088284;28;20453;-51
2022/12/19 06:30:16;;;;;;;29.77;17.07;;;1.50;99.90;;;;;;5093625;28;20473;-48
2022/12/19 06:32:44;;;;;;;28.10;16.23;;;1.50;99.90;;;;;;5092033;28;20493;-51
2022/12/19 06:35:13;;;;;;;28.03;17.77;;;1.60;99.90;;;;;;5088446;28;20456;-50
2022/12/19 06:37:41;;;;;;;30.23;17.47;;;1.60;99.90;;;;;;5094375;28;20475;-52
2022/12/19 06:42:21;;;;;;;31.23;17.20;;;1.60;99.90;;;;;;5084665;28;20466;-50
2022/12/19 06:42:58;;;;;;;28.27;16.33;;;1.60;99.90;;;;;;5079841;28;20627;-52
2022/12/19 06:45:26;;;;;;;30.43;17.43;;;1.70;99.90;;;;;;5074284;28;20958;-50
2022/12/19 06:47:55;;;;;;;31.90;17.33;;;1.70;99.90;;;;;;5074338;28;20475;-52
2022/12/19 06:50:25;;;;;;;28.67;16.53;;;1.70;99.90;;;;;;5075717;28;20511;-51
2022/12/19 06:52:54;;;;;;;27.33;18.17;;;1.70;99.90;;;;;;5073960;28;20483;-50
2022/12/19 06:55:22;;;;;;;32.17;18.23;;;1.70;99.90;;;;;;5074332;28;20473;-52
2022/12/19 06:57:50;;;;;;;33.23;18.30;;;1.80;99.90;;;;;;5080907;28;20486;-51
2022/12/19 07:00:19;;;;;;;28.73;16.97;;;1.80;99.90;;;;;;5073416;28;20455;-52
2022/12/19 07:02:50;;;;;;;29.77;17.67;;;1.70;99.90;;;;;;5076755;28;20475;-50
2022/12/19 07:05:19;;;;;;;29.70;16.77;;;1.70;99.90;;;;;;5074447;28;20465;-48
2022/12/19 07:07:49;;;;;;;30.63;18.13;;;1.80;99.90;;;;;;5093784;28;20478;-51
2022/12/19 07:10:17;;;;;;;28.57;17.00;;;1.80;99.90;;;;;;5094148;28;20464;-51
2022/12/19 07:12:45;;;;;;;31.97;18.03;;;1.70;99.90;;;;;;5088007;28;20528;-50
2022/12/19 07:15:14;;;;;;;31.83;17.87;;;1.80;99.90;;;;;;5094309;28;20557;-51
2022/12/19 07:17:42;;;;;;;30.30;17.80;;;1.80;99.90;;;;;;5094258;28;20477;-48
2022/12/19 07:20:11;;;;;;;34.70;18.83;;;1.80;99.90;;;;;;5093644;28;20463;-50
2022/12/19 07:22:41;;;;;;;31.20;17.93;;;1.80;99.90;;;;;;5093978;28;20478;-51
2022/12/19 07:25:11;;;;;;;32.47;18.43;;;1.80;99.90;;;;;;5093816;28;20516;-49
2022/12/19 07:27:39;;;;;;;30.00;17.67;;;1.80;99.90;;;;;;5077705;28;20473;-52
2022/12/19 07:30:08;;;;;;;33.80;18.27;;;1.80;99.90;;;;;;5072962;28;20815;-48
2022/12/19 07:32:37;;;;;;;27.30;17.50;;;1.90;99.90;;;;;;5072931;28;21009;-47
2022/12/19 07:35:07;;;;;;;32.43;17.87;;;1.90;99.90;;;;;;5085609;28;20461;-52
2022/12/19 07:37:35;;;;;;;31.07;18.03;;;1.90;99.90;;;;;;5093505;28;21036;-49
2022/12/19 07:40:05;;;;;;;30.93;18.63;;;1.90;99.90;;;;;;5078047;28;20497;-49
2022/12/19 07:42:34;;;;;;;34.10;18.77;;;1.90;99.90;;;;;;5073485;28;20472;-50
2022/12/19 07:45:02;;;;;;;29.30;17.73;;;1.90;99.90;;;;;;5072959;28;20458;-49
2022/12/19 07:47:30;;;;;;;30.43;18.37;;;1.90;99.90;;;;;;5073067;28;21069;-52
2022/12/19 07:49:59;;;;;;;33.43;18.27;;;1.90;99.90;;;;;;5070571;28;20970;-51
2022/12/19 07:52:27;;;;;;;35.57;19.13;;;1.90;99.90;;;;;;5067571;28;20888;-52
2022/12/19 07:54:55;;;;;;;30.43;17.90;;;2.00;99.90;;;;;;5067699;28;20470;-51
2022/12/19 07:57:23;;;;;;;32.50;19.00;;;2.00;99.90;;;;;;5068106;28;21010;-50
2022/12/19 07:59:53;;;;;;;32.00;18.63;;;2.00;99.90;;;;;;5067643;28;20482;-48
2022/12/19 08:02:21;;;;;;;30.07;17.87;;;2.00;99.90;;;;;;5077585;28;20478;-51
2022/12/19 08:04:49;;;;;;;34.53;18.87;;;2.00;99.90;;;;;;5074359;28;20503;-50
2022/12/19 08:07:17;;;;;;;37.20;20.70;;;2.00;99.90;;;;;;5076816;28;20506;-50
2022/12/19 08:09:45;;;;;;;31.37;18.77;;;2.10;99.90;;;;;;5080723;28;20953;-51
2022/12/19 08:12:13;;;;;;;34.77;19.77;;;2.10;99.90;;;;;;5082425;28;20472;-51
2022/12/19 08:14:41;;;;;;;34.20;18.83;;;2.10;99.90;;;;;;5076240;28;20474;-52
2022/12/19 08:17:11;;;;;;;32.50;19.80;;;2.20;99.90;;;;;;5074916;28;20477;-52
2022/12/19 08:19:47;;;;;;;28.97;17.47;;;2.20;99.90;;;;;;5074177;28;20457;-47
2022/12/19 08:22:15;;;;;;;33.77;18.63;;;2.20;99.90;;;;;;5075485;28;20462;-52
2022/12/19 08:24:43;;;;;;;31.37;18.13;;;2.30;99.90;;;;;;5078958;28;20471;-49
2022/12/19 08:27:12;;;;;;;29.63;17.50;;;2.20;99.90;;;;;;5081472;28;20462;-50
2022/12/19 08:29:40;;;;;;;32.77;18.97;;;2.20;99.90;;;;;;5079367;28;20996;-51
2022/12/19 08:32:08;;;;;;;32.27;19.03;;;2.20;99.90;;;;;;5079242;28;20854;-52
2022/12/19 08:34:37;;;;;;;34.13;19.73;;;2.30;99.90;;;;;;5078718;28;20482;-51
2022/12/19 08:37:05;;;;;;;33.57;19.57;;;2.30;99.90;;;;;;5075840;28;21081;-50
2022/12/19 08:39:33;;;;;;;34.50;19.67;;;2.30;99.90;;;;;;5072223;28;20470;-51
2022/12/19 08:42:01;;;;;;;32.57;19.50;;;2.30;99.90;;;;;;5077280;28;20478;-50
2022/12/19 08:44:29;;;;;;;33.33;19.33;;;2.30;99.90;;;;;;5079639;28;20467;-47
2022/12/19 08:46:57;;;;;;;32.83;19.57;;;2.30;99.90;;;;;;5082441;28;20728;-52
2022/12/19 08:49:25;;;;;;;31.57;19.60;;;2.30;99.90;;;;;;5080106;28;20475;-49
2022/12/19 08:51:54;;;;;;;34.30;19.77;;;2.40;99.90;;;;;;5080518;28;20491;-50
2022/12/19 08:54:23;;;;;;;34.63;18.97;;;2.40;99.90;;;;;;5078168;28;20485;-53
2022/12/19 08:56:51;;;;;;;34.70;19.10;;;2.40;99.90;;;;;;5079485;28;20462;-52
2022/12/19 08:59:19;;;;;;;32.87;18.70;;;2.40;99.90;;;;;;5079514;28;20486;-52
2022/12/19 09:01:59;;;;;;;31.23;19.67;;;2.50;99.90;;;;;;5079014;28;20499;-50
2022/12/19 09:04:28;;;;;;;31.10;18.40;;;2.50;99.90;;;;;;5082963;28;20467;-50
2022/12/19 09:07:17;;;;;;;33.37;19.07;;;2.50;99.90;;;;;;5079632;28;20460;-51
2022/12/19 09:09:45;;;;;;;35.00;20.50;;;2.50;99.90;;;;;;5085691;28;20474;-51
2022/12/19 09:12:15;;;;;;;39.20;20.70;;;2.50;99.90;;;;;;5085056;28;20470;-51
2022/12/19 09:14:44;;;;;;;31.77;19.30;;;2.60;99.90;;;;;;5080861;28;20494;-51
2022/12/19 09:17:12;;;;;;;33.17;19.50;;;2.60;99.90;;;;;;5084978;28;20817;-53
2022/12/19 09:19:40;;;;;;;34.97;20.70;;;2.60;99.90;;;;;;5082968;28;20832;-52
2022/12/19 09:22:15;;;;;;;36.70;20.43;;;2.60;99.90;;;;;;5085096;28;20489;-49
2022/12/19 09:24:45;;;;;;;32.93;19.80;;;2.60;99.90;;;;;;5079844;28;20564;-51
2022/12/19 09:27:13;;;;;;;29.83;19.17;;;2.70;99.90;;;;;;5079627;28;20837;-49
2022/12/19 09:29:42;;;;;;;36.17;22.17;;;2.70;99.90;;;;;;5077322;28;20990;-51
2022/12/19 09:32:10;;;;;;;34.87;20.73;;;2.70;99.90;;;;;;5077874;28;21014;-49
2022/12/19 09:34:38;;;;;;;38.07;20.90;;;2.70;99.90;;;;;;5079347;28;20500;-51
2022/12/19 09:37:07;;;;;;;32.77;20.43;;;2.80;99.90;;;;;;5082571;28;20488;-51
2022/12/19 09:39:44;;;;;;;30.93;19.63;;;2.80;99.90;;;;;;5089301;28;21017;-52
2022/12/19 09:42:35;;;;;;;35.00;20.97;;;2.80;99.90;;;;;;5080287;28;20460;-54
2022/12/19 09:45:46;;;;;;;34.03;20.27;;;2.80;99.90;;;;;;5080028;28;20471;-51
2022/12/19 09:48:16;;;;;;;35.57;20.70;;;2.90;99.90;;;;;;5079428;28;20546;-49
2022/12/19 09:50:59;;;;;;;32.27;19.07;;;2.90;99.90;;;;;;5084628;28;20454;-51
2022/12/19 09:53:55;;;;;;;32.27;19.17;;;2.90;99.90;;;;;;5077995;28;20485;-50
2022/12/19 09:56:28;;;;;;;30.67;18.67;;;2.90;99.90;;;;;;5078258;28;20462;-51
2022/12/19 09:59:03;;;;;;;32.57;19.43;;;2.90;99.90;;;;;;5080951;28;20473;-52
2022/12/19 10:01:37;;;;;;;31.80;19.70;;;2.90;99.90;;;;;;5080686;28;21204;-50
2022/12/19 10:04:11;;;;;;;33.00;19.93;;;3.00;99.90;;;;;;5081266;28;20455;-51
2022/12/19 10:06:39;;;;;;;31.40;19.33;;;3.00;99.90;;;;;;5080940;28;20470;-52
2022/12/19 10:09:33;;;;;;;35.43;21.60;;;3.00;99.90;;;;;;5078532;28;20517;-51
2022/12/19 10:12:57;;;;;;;29.70;18.60;;;3.10;99.90;;;;;;5082231;28;20487;-53
2022/12/19 10:15:41;;;;;;;32.50;19.47;;;3.10;99.90;;;;;;5070810;28;20495;-51
2022/12/19 10:18:30;;;;;;;33.90;19.83;;;3.10;99.90;;;;;;5079055;28;20515;-51
2022/12/19 10:21:05;;;;;;;33.53;20.07;;;3.10;99.90;;;;;;5080138;28;20719;-48
2022/12/19 10:24:01;;;;;;;33.60;20.77;;;3.10;99.90;;;;;;5080077;28;20458;-50
2022/12/19 10:26:36;;;;;;;33.30;20.27;;;3.20;99.90;;;;;;5076500;28;20878;-49
2022/12/19 10:29:29;;;;;;;32.27;20.53;;;3.30;99.90;;;;;;5078733;28;20478;-51
2022/12/19 10:32:04;;;;;;;36.17;21.40;;;3.20;99.90;;;;;;5076015;28;20927;-51
2022/12/19 10:34:36;;;;;;;30.50;20.57;;;3.30;99.90;;;;;;5080693;28;20594;-51
2022/12/19 10:37:16;;;;;;;30.33;18.53;;;3.30;99.90;;;;;;5082340;28;20466;-51
2022/12/19 10:40:01;;;;;;;32.47;20.33;;;3.30;99.90;;;;;;5075024;28;20521;-51
2022/12/19 10:42:40;;;;;;;31.53;20.50;;;3.30;99.90;;;;;;5076052;28;20464;-52
2022/12/19 10:45:16;;;;;;;30.27;19.70;;;3.40;99.90;;;;;;5083308;28;20899;-52
2022/12/19 10:47:46;;;;;;;30.40;19.90;;;3.30;99.90;;;;;;5081366;28;20474;-51
2022/12/19 10:50:21;;;;;;;32.70;20.93;;;3.40;99.90;;;;;;5084909;28;20486;-52
2022/12/19 10:52:53;;;;;;;33.07;21.00;;;3.40;99.90;;;;;;5083635;28;20470;-51
2022/12/19 10:55:43;;;;;;;31.43;20.57;;;3.40;99.90;;;;;;5076401;28;20474;-50
2022/12/19 10:58:19;;;;;;;32.07;20.10;;;3.50;99.90;;;;;;5078918;28;20484;-50
2022/12/19 11:01:05;;;;;;;32.10;20.27;;;3.40;99.90;;;;;;5081767;28;20881;-49
2022/12/19 11:03:34;;;;;;;32.57;19.63;;;3.50;99.90;;;;;;5084793;28;20971;-50
2022/12/19 11:06:04;;;;;;;32.27;20.57;;;3.50;99.90;;;;;;5077462;28;20478;-51
2022/12/19 11:08:33;;;;;;;30.70;19.63;;;3.60;99.90;;;;;;5083429;28;20574;-50
2022/12/19 11:11:13;;;;;;;36.57;21.63;;;3.60;99.90;;;;;;5081696;28;20479;-51
2022/12/19 11:14:20;;;;;;;32.07;20.23;;;3.70;99.90;;;;;;5073807;28;20549;-51
2022/12/19 11:20:11;;;;;;;34.73;22.27;;;3.70;99.90;;;;;;5108882;27;20351;-54
2022/12/19 11:23:00;;;;;;;37.20;23.10;;;3.80;99.90;;;;;;5100996;28;20888;-52
2022/12/19 11:25:55;;;;;;;32.80;21.83;;;3.80;99.90;;;;;;5103634;28;20462;-51
2022/12/19 11:28:43;;;;;;;36.70;22.07;;;3.80;99.90;;;;;;5100486;28;20470;-52
2022/12/19 11:31:35;;;;;;;36.87;23.07;;;3.80;99.90;;;;;;5089119;28;20492;-53
2022/12/19 11:34:26;;;;;;;37.93;23.60;;;3.90;99.90;;;;;;5072210;28;20468;-55
2022/12/19 11:37:12;;;;;;;31.77;21.60;;;4.00;99.90;;;;;;5081254;28;20468;-51
2022/12/19 11:39:45;;;;;;;32.07;21.27;;;4.10;99.90;;;;;;5080037;28;20931;-52
2022/12/19 11:42:20;;;;;;;35.03;21.77;;;4.10;99.90;;;;;;5073770;28;20457;-53
2022/12/19 11:44:55;;;;;;;33.37;22.17;;;4.20;99.90;;;;;;5079959;28;20960;-53
2022/12/19 11:47:33;;;;;;;31.63;19.93;;;4.20;99.90;;;;;;5082355;28;20464;-51
2022/12/19 11:50:08;;;;;;;28.07;18.67;;;4.20;99.90;;;;;;5079678;28;20495;-51
2022/12/19 11:52:43;;;;;;;28.40;17.97;;;4.30;99.90;;;;;;5082252;28;20470;-51
2022/12/19 11:55:40;;;;;;;28.50;18.43;;;4.30;99.90;;;;;;5076917;28;20537;-52
2022/12/19 11:58:10;;;;;;;26.13;18.13;;;4.30;99.90;;;;;;5074984;28;20469;-55
2022/12/19 12:00:46;;;;;;;25.10;16.90;;;4.40;99.90;;;;;;5076114;28;20496;-53
2022/12/19 12:03:41;;;;;;;25.40;17.03;;;4.40;99.90;;;;;;5080715;28;20570;-52
2022/12/19 12:06:33;;;;;;;28.37;18.97;;;4.40;99.90;;;;;;5082363;28;20971;-50
2022/12/19 12:09:13;;;;;;;26.00;17.17;;;4.50;99.90;;;;;;5080434;28;20487;-50
2022/12/19 12:12:11;;;;;;;26.70;18.27;;;4.50;99.90;;;;;;5082972;28;20464;-50
2022/12/19 12:15:23;;;;;;;25.20;18.23;;;4.60;99.90;;;;;;5083254;28;20516;-52
2022/12/19 12:18:21;;;;;;;29.13;20.23;;;4.60;99.90;;;;;;5078982;28;20492;-50
2022/12/19 12:21:21;;;;;;;28.57;20.77;;;4.70;99.90;;;;;;5080752;28;21017;-53
2022/12/19 12:24:23;;;;;;;27.83;18.93;;;4.70;99.90;;;;;;5081454;28;20507;-53
2022/12/19 12:27:29;;;;;;;28.27;19.17;;;4.70;99.90;;;;;;5080757;28;20465;-53
2022/12/19 12:30:20;;;;;;;27.17;19.57;;;4.80;99.90;;;;;;5071876;28;20530;-51
2022/12/19 12:33:19;;;;;;;27.07;19.93;;;4.80;99.90;;;;;;5066454;28;20477;-52
2022/12/19 12:36:21;;;;;;;32.37;20.97;;;4.80;99.90;;;;;;5068531;28;20476;-54
2022/12/19 12:39:19;;;;;;;33.10;22.70;;;4.80;99.90;;;;;;5064922;28;20461;-53
2022/12/19 12:42:07;;;;;;;31.27;21.07;;;4.80;99.90;;;;;;5069374;28;20475;-50
2022/12/19 12:44:38;;;;;;;32.97;21.87;;;4.90;99.90;;;;;;5067798;28;20791;-52
2022/12/19 12:47:17;;;;;;;32.27;21.50;;;4.90;99.90;;;;;;5066262;28;20477;-51
2022/12/19 12:49:48;;;;;;;27.80;20.53;;;4.90;99.90;;;;;;5066532;28;20563;-51
2022/12/19 12:52:20;;;;;;;29.87;21.07;;;4.90;99.90;;;;;;5069776;28;20458;-49
2022/12/19 12:54:50;;;;;;;31.50;21.63;;;5.00;99.90;;;;;;5061737;28;20472;-54
2022/12/19 12:57:32;;;;;;;28.63;21.50;;;5.00;99.90;;;;;;5064951;28;20481;-52
2022/12/19 13:00:30;;;;;;;29.77;21.07;;;4.90;99.90;;;;;;5066815;28;20960;-53
2022/12/19 13:03:04;;;;;;;29.47;22.33;;;5.00;99.90;;;;;;5031124;28;20482;-54
2022/12/19 13:05:40;;;;;;;31.37;22.20;;;5.00;99.90;;;;;;5067356;28;20525;-52
2022/12/19 13:08:35;;;;;;;33.83;24.13;;;5.10;99.90;;;;;;5065908;28;20469;-53
2022/12/19 13:11:06;;;;;;;32.80;22.73;;;5.10;99.90;;;;;;5063364;28;20484;-49
2022/12/19 13:13:53;;;;;;;32.80;22.90;;;5.20;99.90;;;;;;5064165;28;20558;-49
2022/12/19 13:16:51;;;;;;;31.47;21.97;;;5.20;99.90;;;;;;5065795;28;20471;-54